createdAt,value
2017-11-17T00:00:25.289Z,1013.42
2017-11-17T00:01:25.209Z,1013.38
2017-11-17T00:02:25.119Z,1013.40
2017-11-17T00:03:25.026Z,1013.40
2017-11-17T00:04:24.945Z,1013.40
2017-11-17T00:05:24.855Z,1013.41
2017-11-17T00:06:24.761Z,1013.43
2017-11-17T00:07:24.675Z,1013.43
2017-11-17T00:08:24.597Z,1013.43
2017-11-17T00:09:24.508Z,1013.40
2017-11-17T00:10:24.417Z,1013.41
2017-11-17T00:11:24.326Z,1013.44
2017-11-17T00:12:24.246Z,1013.43
2017-11-17T00:13:24.159Z,1013.40
2017-11-17T00:14:24.065Z,1013.37
2017-11-17T00:15:23.967Z,1013.37
2017-11-17T00:16:23.883Z,1013.32
2017-11-17T00:17:23.791Z,1013.35
2017-11-17T00:18:23.704Z,1013.33
2017-11-17T00:19:23.620Z,1013.32
2017-11-17T00:20:23.532Z,1013.29
2017-11-17T00:21:23.442Z,1013.31
2017-11-17T00:22:23.356Z,1013.39
2017-11-17T00:23:23.265Z,1013.42
2017-11-17T00:24:23.183Z,1013.40
2017-11-17T00:25:23.096Z,1013.43
2017-11-17T00:26:22.997Z,1013.41
2017-11-17T00:27:22.918Z,1013.43
2017-11-17T00:28:22.834Z,1013.42
2017-11-17T00:29:22.743Z,1013.36
2017-11-17T00:30:22.650Z,1013.39
2017-11-17T00:31:22.559Z,1013.38
2017-11-17T00:32:22.473Z,1013.37
2017-11-17T00:33:22.387Z,1013.39
2017-11-17T00:34:22.297Z,1013.35
2017-11-17T00:35:22.212Z,1013.35
2017-11-17T00:36:22.122Z,1013.33
2017-11-17T00:37:22.050Z,1013.40
2017-11-17T00:38:21.950Z,1013.40
2017-11-17T00:39:21.868Z,1013.34
2017-11-17T00:40:21.786Z,1013.34
2017-11-17T00:41:21.693Z,1013.40
2017-11-17T00:42:21.595Z,1013.36
2017-11-17T00:43:21.529Z,1013.37
2017-11-17T00:44:21.428Z,1013.36
2017-11-17T00:45:21.333Z,1013.39
2017-11-17T00:46:21.248Z,1013.37
2017-11-17T00:47:21.158Z,1013.36
2017-11-17T00:48:21.062Z,1013.34
2017-11-17T00:49:20.982Z,1013.33
2017-11-17T00:50:20.896Z,1013.33
2017-11-17T00:51:20.835Z,1013.32
2017-11-17T00:52:20.726Z,1013.37
2017-11-17T00:53:20.627Z,1013.31
2017-11-17T00:54:20.556Z,1013.37
2017-11-17T00:55:20.457Z,1013.38
2017-11-17T00:56:20.367Z,1013.35
2017-11-17T00:57:20.269Z,1013.36
2017-11-17T00:58:20.242Z,1013.37
2017-11-17T00:59:20.092Z,1013.38
2017-11-17T01:00:20.000Z,1013.40
2017-11-17T01:01:19.913Z,1013.38
2017-11-17T01:02:19.827Z,1013.38
2017-11-17T01:03:19.740Z,1013.38
2017-11-17T01:04:19.662Z,1013.39
2017-11-17T01:05:19.579Z,1013.38
2017-11-17T01:06:19.481Z,1013.41
2017-11-17T01:07:19.383Z,1013.39
2017-11-17T01:08:19.323Z,1013.41
2017-11-17T01:09:19.218Z,1013.42
2017-11-17T01:10:19.126Z,1013.46
2017-11-17T01:11:19.039Z,1013.42
2017-11-17T01:12:18.944Z,1013.42
2017-11-17T01:13:18.865Z,1013.45
2017-11-17T01:14:18.769Z,1013.42
2017-11-17T01:15:18.678Z,1013.40
2017-11-17T01:16:18.592Z,1013.43
2017-11-17T01:17:18.496Z,1013.41
2017-11-17T01:18:18.431Z,1013.40
2017-11-17T01:19:18.326Z,1013.42
2017-11-17T01:20:18.244Z,1013.38
2017-11-17T01:21:18.162Z,1013.32
2017-11-17T01:22:18.060Z,1013.34
2017-11-17T01:23:17.978Z,1013.36
2017-11-17T01:24:17.897Z,1013.35
2017-11-17T01:25:17.795Z,1013.31
2017-11-17T01:26:17.711Z,1013.34
2017-11-17T01:27:17.622Z,1013.28
2017-11-17T01:28:17.532Z,1013.31
2017-11-17T01:29:17.447Z,1013.26
2017-11-17T01:30:17.378Z,1013.30
2017-11-17T01:31:17.265Z,1013.28
2017-11-17T01:32:17.197Z,1013.30
2017-11-17T01:33:17.089Z,1013.32
2017-11-17T01:34:17.001Z,1013.30
2017-11-17T01:35:16.907Z,1013.35
2017-11-17T01:36:16.842Z,1013.35
2017-11-17T01:37:16.739Z,1013.32
2017-11-17T01:38:16.656Z,1013.35
2017-11-17T01:39:16.561Z,1013.36
2017-11-17T01:40:16.475Z,1013.37
2017-11-17T01:41:16.390Z,1013.34
2017-11-17T01:42:16.298Z,1013.32
2017-11-17T01:43:16.214Z,1013.28
2017-11-17T01:44:16.119Z,1013.28
2017-11-17T01:45:16.037Z,1013.26
2017-11-17T01:46:15.966Z,1013.24
2017-11-17T01:47:15.858Z,1013.32
2017-11-17T01:48:15.766Z,1013.29
2017-11-17T01:49:15.681Z,1013.26
2017-11-17T01:50:15.595Z,1013.24
2017-11-17T01:51:15.551Z,1013.27
2017-11-17T01:52:15.409Z,1013.24
2017-11-17T01:53:15.321Z,1013.23
2017-11-17T01:54:15.238Z,1013.25
2017-11-17T01:55:15.150Z,1013.23
2017-11-17T01:56:15.060Z,1013.22
2017-11-17T01:57:14.981Z,1013.19
2017-11-17T01:58:14.895Z,1013.19
2017-11-17T01:59:14.811Z,1013.15
2017-11-17T02:00:14.745Z,1013.14
2017-11-17T02:01:14.630Z,1013.18
2017-11-17T02:02:14.540Z,1013.20
2017-11-17T02:03:14.447Z,1013.18
2017-11-17T02:04:14.360Z,1013.17
2017-11-17T02:05:14.267Z,1013.13
2017-11-17T02:06:14.181Z,1013.17
2017-11-17T02:07:14.095Z,1013.13
2017-11-17T02:08:14.003Z,1013.16
2017-11-17T02:09:13.913Z,1013.12
2017-11-17T02:10:13.826Z,1013.13
2017-11-17T02:11:13.748Z,1013.20
2017-11-17T02:12:13.659Z,1013.15
2017-11-17T02:13:13.564Z,1013.15
2017-11-17T02:14:13.506Z,1013.17
2017-11-17T02:15:13.395Z,1013.18
2017-11-17T02:16:13.303Z,1013.15
2017-11-17T02:17:13.219Z,1013.13
2017-11-17T02:18:13.132Z,1013.15
2017-11-17T02:19:13.038Z,1013.10
2017-11-17T02:20:12.941Z,1013.09
2017-11-17T02:21:12.896Z,1013.10
2017-11-17T02:22:12.772Z,1013.08
2017-11-17T02:23:12.690Z,1013.10
2017-11-17T02:24:12.596Z,1013.11
2017-11-17T02:25:12.504Z,1013.11
2017-11-17T02:26:12.417Z,1013.11
2017-11-17T02:27:12.325Z,1013.13
2017-11-17T02:28:12.241Z,1013.15
2017-11-17T02:29:12.151Z,1013.08
2017-11-17T02:30:12.069Z,1013.12
2017-11-17T02:31:11.980Z,1013.11
2017-11-17T02:32:11.891Z,1013.13
2017-11-17T02:33:11.824Z,1013.10
2017-11-17T02:34:11.705Z,1013.09
2017-11-17T02:35:11.624Z,1013.10
2017-11-17T02:36:11.579Z,1013.13
2017-11-17T02:37:11.465Z,1013.09
2017-11-17T02:38:11.362Z,1013.12
2017-11-17T02:39:11.271Z,1013.09
2017-11-17T02:40:11.180Z,1013.10
2017-11-17T02:41:11.096Z,1013.11
2017-11-17T02:42:11.009Z,1013.12
2017-11-17T02:43:10.920Z,1013.16
2017-11-17T02:44:10.842Z,1013.18
2017-11-17T02:45:10.742Z,1013.20
2017-11-17T02:46:10.650Z,1013.20
2017-11-17T02:47:10.799Z,1013.24
2017-11-17T02:48:10.557Z,1013.20
2017-11-17T02:49:10.393Z,1013.22
2017-11-17T02:50:10.361Z,1013.22
2017-11-17T02:51:10.216Z,1013.21
2017-11-17T02:52:10.126Z,1013.21
2017-11-17T02:53:10.043Z,1013.24
2017-11-17T02:54:09.953Z,1013.24
2017-11-17T02:55:09.862Z,1013.24
2017-11-17T02:56:09.777Z,1013.28
2017-11-17T02:57:09.691Z,1013.22
2017-11-17T02:58:09.600Z,1013.27
2017-11-17T02:59:09.511Z,1013.19
2017-11-17T03:00:09.430Z,1013.24
2017-11-17T03:01:09.335Z,1013.21
2017-11-17T03:02:09.262Z,1013.26
2017-11-17T03:03:09.193Z,1013.28
2017-11-17T03:04:09.077Z,1013.31
2017-11-17T03:05:08.988Z,1013.32
2017-11-17T03:06:08.902Z,1013.28
2017-11-17T03:07:08.815Z,1013.31
2017-11-17T03:08:08.740Z,1013.31
2017-11-17T03:09:08.635Z,1013.31
2017-11-17T03:10:08.565Z,1013.31
2017-11-17T03:11:08.460Z,1013.36
2017-11-17T03:12:08.377Z,1013.37
2017-11-17T03:13:08.289Z,1013.38
2017-11-17T03:14:08.216Z,1013.40
2017-11-17T03:15:08.118Z,1013.42
2017-11-17T03:16:08.026Z,1013.43
2017-11-17T03:17:07.936Z,1013.44
2017-11-17T03:18:07.899Z,1013.46
2017-11-17T03:19:07.767Z,1013.42
2017-11-17T03:20:07.681Z,1013.41
2017-11-17T03:21:07.585Z,1013.38
2017-11-17T03:22:07.498Z,1013.40
2017-11-17T03:23:07.408Z,1013.40
2017-11-17T03:24:07.336Z,1013.42
2017-11-17T03:25:07.236Z,1013.41
2017-11-17T03:26:07.147Z,1013.43
2017-11-17T03:27:07.065Z,1013.46
2017-11-17T03:28:06.977Z,1013.45
2017-11-17T03:29:06.886Z,1013.48
2017-11-17T03:30:06.801Z,1013.48
2017-11-17T03:31:06.707Z,1013.43
2017-11-17T03:32:06.623Z,1013.45
2017-11-17T03:33:06.533Z,1013.45
2017-11-17T03:34:06.446Z,1013.41
2017-11-17T03:35:06.363Z,1013.40
2017-11-17T03:36:06.272Z,1013.42
2017-11-17T03:37:06.182Z,1013.35
2017-11-17T03:38:06.093Z,1013.37
2017-11-17T03:39:06.004Z,1013.40
2017-11-17T03:40:05.918Z,1013.34
2017-11-17T03:41:05.827Z,1013.39
2017-11-17T03:42:05.756Z,1013.35
2017-11-17T03:43:05.675Z,1013.38
2017-11-17T03:44:05.563Z,1013.39
2017-11-17T03:45:05.473Z,1013.42
2017-11-17T03:46:05.387Z,1013.40
2017-11-17T03:47:05.298Z,1013.43
2017-11-17T03:48:05.221Z,1013.45
2017-11-17T03:49:05.133Z,1013.44
2017-11-17T03:50:05.040Z,1013.46
2017-11-17T03:51:04.947Z,1013.46
2017-11-17T03:52:04.867Z,1013.48
2017-11-17T03:53:04.776Z,1013.46
2017-11-17T03:54:04.700Z,1013.47
2017-11-17T03:55:04.605Z,1013.41
2017-11-17T03:56:04.512Z,1013.46
2017-11-17T03:57:04.427Z,1013.50
2017-11-17T03:58:04.349Z,1013.46
2017-11-17T03:59:04.252Z,1013.50
2017-11-17T04:00:04.183Z,1013.48
2017-11-17T04:01:04.078Z,1013.49
2017-11-17T04:02:03.988Z,1013.46
2017-11-17T04:03:03.893Z,1013.43
2017-11-17T04:04:03.811Z,1013.42
2017-11-17T04:05:03.765Z,1013.47
2017-11-17T04:06:03.641Z,1013.44
2017-11-17T04:07:03.550Z,1013.42
2017-11-17T04:08:03.460Z,1013.47
2017-11-17T04:09:03.376Z,1013.42
2017-11-17T04:10:03.284Z,1013.46
2017-11-17T04:11:03.198Z,1013.41
2017-11-17T04:12:03.115Z,1013.36
2017-11-17T04:13:03.018Z,1013.34
2017-11-17T04:14:02.939Z,1013.34
2017-11-17T04:15:02.853Z,1013.41
2017-11-17T04:16:02.759Z,1013.35
2017-11-17T04:17:02.681Z,1013.34
2017-11-17T04:18:02.581Z,1013.28
2017-11-17T04:19:02.488Z,1013.31
2017-11-17T04:20:02.404Z,1013.30
2017-11-17T04:21:02.319Z,1013.29
2017-11-17T04:22:02.232Z,1013.26
2017-11-17T04:23:02.137Z,1013.26
2017-11-17T04:24:02.054Z,1013.25
2017-11-17T04:25:01.971Z,1013.18
2017-11-17T04:26:01.872Z,1013.16
2017-11-17T04:27:01.913Z,1013.16
2017-11-17T04:28:01.696Z,1013.16
2017-11-17T04:29:01.607Z,1013.19
2017-11-17T04:30:01.541Z,1013.14
2017-11-17T04:31:01.445Z,1013.18
2017-11-17T04:32:01.358Z,1013.19
2017-11-17T04:33:01.262Z,1013.15
2017-11-17T04:34:01.166Z,1013.09
2017-11-17T04:35:01.085Z,1013.12
2017-11-17T04:36:00.985Z,1013.11
2017-11-17T04:37:00.897Z,1013.18
2017-11-17T04:38:00.811Z,1013.18
2017-11-17T04:39:00.721Z,1013.20
2017-11-17T04:40:00.641Z,1013.21
2017-11-17T04:41:00.544Z,1013.19
2017-11-17T04:42:00.451Z,1013.18
2017-11-17T04:43:00.364Z,1013.16
2017-11-17T04:44:00.285Z,1013.19
2017-11-17T04:45:00.197Z,1013.16
2017-11-17T04:46:00.106Z,1013.22
2017-11-17T04:47:00.035Z,1013.23
2017-11-17T04:47:59.932Z,1013.24
2017-11-17T04:48:59.832Z,1013.26
2017-11-17T04:49:59.748Z,1013.25
2017-11-17T04:50:59.659Z,1013.27
2017-11-17T04:51:59.575Z,1013.30
2017-11-17T04:52:59.490Z,1013.31
2017-11-17T04:53:59.400Z,1013.30
2017-11-17T04:54:59.303Z,1013.32
2017-11-17T04:55:59.214Z,1013.29
2017-11-17T04:56:59.138Z,1013.32
2017-11-17T04:57:59.042Z,1013.31
2017-11-17T04:58:58.950Z,1013.31
2017-11-17T04:59:58.865Z,1013.32
2017-11-17T05:00:58.780Z,1013.33
2017-11-17T05:01:58.689Z,1013.32
2017-11-17T05:02:58.613Z,1013.34
2017-11-17T05:03:58.513Z,1013.35
2017-11-17T05:04:58.440Z,1013.32
2017-11-17T05:05:58.332Z,1013.31
2017-11-17T05:06:58.242Z,1013.34
2017-11-17T05:07:58.154Z,1013.28
2017-11-17T05:08:58.095Z,1013.34
2017-11-17T05:09:57.983Z,1013.31
2017-11-17T05:10:57.914Z,1013.35
2017-11-17T05:11:57.817Z,1013.33
2017-11-17T05:12:57.714Z,1013.36
2017-11-17T05:13:57.634Z,1013.39
2017-11-17T05:14:57.542Z,1013.44
2017-11-17T05:15:57.447Z,1013.45
2017-11-17T05:16:57.357Z,1013.46
2017-11-17T05:17:57.285Z,1013.49
2017-11-17T05:18:57.178Z,1013.49
2017-11-17T05:19:57.103Z,1013.48
2017-11-17T05:20:57.020Z,1013.52
2017-11-17T05:21:56.917Z,1013.53
2017-11-17T05:22:56.830Z,1013.54
2017-11-17T05:23:56.734Z,1013.51
2017-11-17T05:24:56.653Z,1013.60
2017-11-17T05:25:56.565Z,1013.60
2017-11-17T05:26:56.471Z,1013.62
2017-11-17T05:27:56.392Z,1013.62
2017-11-17T05:28:56.309Z,1013.65
2017-11-17T05:29:56.205Z,1013.63
2017-11-17T05:30:56.155Z,1013.68
2017-11-17T05:31:56.037Z,1013.67
2017-11-17T05:32:55.962Z,1013.65
2017-11-17T05:33:55.863Z,1013.65
2017-11-17T05:34:55.769Z,1013.64
2017-11-17T05:35:55.701Z,1013.63
2017-11-17T05:36:55.597Z,1013.58
2017-11-17T05:37:55.509Z,1013.57
2017-11-17T05:38:55.418Z,1013.61
2017-11-17T05:39:55.350Z,1013.58
2017-11-17T05:40:55.241Z,1013.61
2017-11-17T05:41:55.159Z,1013.66
2017-11-17T05:42:55.080Z,1013.66
2017-11-17T05:43:54.980Z,1013.68
2017-11-17T05:44:54.894Z,1013.62
2017-11-17T05:45:54.812Z,1013.64
2017-11-17T05:46:54.723Z,1013.64
2017-11-17T05:47:54.633Z,1013.64
2017-11-17T05:48:54.573Z,1013.63
2017-11-17T05:49:54.456Z,1013.61
2017-11-17T05:50:54.377Z,1013.61
2017-11-17T05:51:54.283Z,1013.69
2017-11-17T05:52:54.191Z,1013.68
2017-11-17T05:53:54.107Z,1013.64
2017-11-17T05:54:54.020Z,1013.64
2017-11-17T05:55:53.958Z,1013.68
2017-11-17T05:56:53.850Z,1013.65
2017-11-17T05:57:53.758Z,1013.63
2017-11-17T05:58:53.668Z,1013.68
2017-11-17T05:59:53.573Z,1013.64
2017-11-17T06:00:53.492Z,1013.66
2017-11-17T06:01:53.403Z,1013.65
2017-11-17T06:02:53.314Z,1013.64
2017-11-17T06:03:53.235Z,1013.67
2017-11-17T06:04:53.144Z,1013.63
2017-11-17T06:05:53.141Z,1013.62
2017-11-17T06:06:52.962Z,1013.67
2017-11-17T06:07:52.921Z,1013.65
2017-11-17T06:08:52.791Z,1013.70
2017-11-17T06:09:52.695Z,1013.63
2017-11-17T06:10:52.614Z,1013.66
2017-11-17T06:11:52.528Z,1013.65
2017-11-17T06:12:52.440Z,1013.66
2017-11-17T06:13:52.353Z,1013.61
2017-11-17T06:14:52.267Z,1013.64
2017-11-17T06:15:52.179Z,1013.63
2017-11-17T06:16:52.088Z,1013.61
2017-11-17T06:17:51.997Z,1013.64
2017-11-17T06:18:51.910Z,1013.62
2017-11-17T06:19:51.820Z,1013.61
2017-11-17T06:20:51.740Z,1013.63
2017-11-17T06:21:51.646Z,1013.61
2017-11-17T06:22:51.563Z,1013.62
2017-11-17T06:23:51.474Z,1013.63
2017-11-17T06:24:51.377Z,1013.61
2017-11-17T06:25:51.299Z,1013.62
2017-11-17T06:26:51.214Z,1013.59
2017-11-17T06:27:51.118Z,1013.62
2017-11-17T06:28:51.025Z,1013.64
2017-11-17T06:29:50.949Z,1013.61
2017-11-17T06:30:50.850Z,1013.64
2017-11-17T06:31:50.772Z,1013.59
2017-11-17T06:32:50.678Z,1013.62
2017-11-17T06:33:50.590Z,1013.57
2017-11-17T06:34:50.503Z,1013.57
2017-11-17T06:35:50.415Z,1013.63
2017-11-17T06:36:50.327Z,1013.56
2017-11-17T06:37:50.238Z,1013.60
2017-11-17T06:38:50.156Z,1013.60
2017-11-17T06:39:50.062Z,1013.57
2017-11-17T06:40:49.971Z,1013.67
2017-11-17T06:41:49.885Z,1013.67
2017-11-17T06:42:49.798Z,1013.66
2017-11-17T06:43:49.710Z,1013.65
2017-11-17T06:44:49.631Z,1013.64
2017-11-17T06:45:49.535Z,1013.72
2017-11-17T06:46:49.436Z,1013.69
2017-11-17T06:47:49.346Z,1013.69
2017-11-17T06:48:49.271Z,1013.67
2017-11-17T06:49:49.179Z,1013.71
2017-11-17T06:50:49.084Z,1013.80
2017-11-17T06:51:48.994Z,1013.73
2017-11-17T06:52:48.904Z,1013.77
2017-11-17T06:53:48.834Z,1013.72
2017-11-17T06:54:48.735Z,1013.74
2017-11-17T06:55:48.638Z,1013.77
2017-11-17T06:56:48.551Z,1013.75
2017-11-17T06:57:48.463Z,1013.74
2017-11-17T06:58:48.378Z,1013.71
2017-11-17T06:59:48.280Z,1013.75
2017-11-17T07:00:48.203Z,1013.76
2017-11-17T07:01:48.102Z,1013.70
2017-11-17T07:02:48.019Z,1013.67
2017-11-17T07:03:47.927Z,1013.70
2017-11-17T07:04:47.836Z,1013.76
2017-11-17T07:05:47.760Z,1013.77
2017-11-17T07:06:47.659Z,1013.78
2017-11-17T07:07:47.581Z,1013.80
2017-11-17T07:08:47.500Z,1013.82
2017-11-17T07:09:47.415Z,1013.85
2017-11-17T07:10:47.305Z,1013.87
2017-11-17T07:11:47.220Z,1013.90
2017-11-17T07:12:47.129Z,1013.91
2017-11-17T07:13:47.044Z,1013.93
2017-11-17T07:14:46.952Z,1013.93
2017-11-17T07:15:46.878Z,1013.96
2017-11-17T07:16:46.775Z,1013.94
2017-11-17T07:17:46.684Z,1013.97
2017-11-17T07:18:46.607Z,1013.96
2017-11-17T07:19:46.520Z,1014.02
2017-11-17T07:20:46.421Z,1014.05
2017-11-17T07:21:46.334Z,1014.01
2017-11-17T07:22:46.257Z,1014.08
2017-11-17T07:23:46.154Z,1014.05
2017-11-17T07:24:46.071Z,1014.08
2017-11-17T07:25:45.996Z,1014.04
2017-11-17T07:26:45.993Z,1014.05
2017-11-17T07:27:45.812Z,1014.07
2017-11-17T07:28:45.718Z,1014.01
2017-11-17T07:29:45.646Z,1014.02
2017-11-17T07:30:45.540Z,1014.00
2017-11-17T07:31:45.447Z,1014.04
2017-11-17T07:32:45.371Z,1014.02
2017-11-17T07:33:45.310Z,1014.08
2017-11-17T07:34:45.194Z,1014.05
2017-11-17T07:35:45.098Z,1014.08
2017-11-17T07:36:45.017Z,1014.11
2017-11-17T07:37:44.924Z,1014.08
2017-11-17T07:38:44.846Z,1014.05
2017-11-17T07:39:44.756Z,1014.03
2017-11-17T07:40:44.665Z,1014.07
2017-11-17T07:41:44.568Z,1014.04
2017-11-17T07:42:44.497Z,1014.06
2017-11-17T07:43:44.397Z,1014.02
2017-11-17T07:44:44.310Z,1014.07
2017-11-17T07:45:44.216Z,1014.12
2017-11-17T07:46:44.129Z,1014.10
2017-11-17T07:47:44.047Z,1014.08
2017-11-17T07:48:43.967Z,1014.07
2017-11-17T07:49:43.869Z,1014.06
2017-11-17T07:50:43.774Z,1014.07
2017-11-17T07:51:43.703Z,1014.04
2017-11-17T07:52:43.616Z,1014.09
2017-11-17T07:53:43.517Z,1014.10
2017-11-17T07:54:43.428Z,1014.13
2017-11-17T07:55:43.345Z,1014.10
2017-11-17T07:56:43.252Z,1014.11
2017-11-17T07:57:43.163Z,1014.14
2017-11-17T07:58:43.078Z,1014.18
2017-11-17T07:59:42.989Z,1014.21
2017-11-17T08:00:42.905Z,1014.25
2017-11-17T08:01:42.817Z,1014.26
2017-11-17T08:02:42.723Z,1014.23
2017-11-17T08:03:42.635Z,1014.21
2017-11-17T08:04:42.550Z,1014.21
2017-11-17T08:05:42.479Z,1014.22
2017-11-17T08:06:42.378Z,1014.23
2017-11-17T08:07:42.284Z,1014.22
2017-11-17T08:08:42.198Z,1014.17
2017-11-17T08:09:42.123Z,1014.17
2017-11-17T08:10:42.028Z,1014.14
2017-11-17T08:11:41.935Z,1014.16
2017-11-17T08:12:41.845Z,1014.18
2017-11-17T08:13:41.766Z,1014.14
2017-11-17T08:14:41.675Z,1014.18
2017-11-17T08:15:41.603Z,1014.15
2017-11-17T08:16:41.499Z,1014.16
2017-11-17T08:17:41.415Z,1014.17
2017-11-17T08:18:41.342Z,1014.16
2017-11-17T08:19:41.248Z,1014.16
2017-11-17T08:20:41.148Z,1014.21
2017-11-17T08:21:41.061Z,1014.18
2017-11-17T08:22:40.996Z,1014.23
2017-11-17T08:23:40.893Z,1014.25
2017-11-17T08:24:40.821Z,1014.26
2017-11-17T08:25:40.717Z,1014.27
2017-11-17T08:26:40.625Z,1014.22
2017-11-17T08:27:40.577Z,1014.27
2017-11-17T08:28:40.444Z,1014.28
2017-11-17T08:29:40.366Z,1014.29
2017-11-17T08:30:40.296Z,1014.29
2017-11-17T08:31:40.187Z,1014.31
2017-11-17T08:32:40.101Z,1014.27
2017-11-17T08:33:40.012Z,1014.34
2017-11-17T08:34:39.928Z,1014.31
2017-11-17T08:35:39.840Z,1014.34
2017-11-17T08:36:39.753Z,1014.36
2017-11-17T08:37:39.668Z,1014.39
2017-11-17T08:38:39.582Z,1014.39
2017-11-17T08:39:39.500Z,1014.41
2017-11-17T08:40:39.409Z,1014.40
2017-11-17T08:41:39.320Z,1014.39
2017-11-17T08:42:39.233Z,1014.39
2017-11-17T08:43:39.150Z,1014.41
2017-11-17T08:44:39.061Z,1014.38
2017-11-17T08:45:38.993Z,1014.38
2017-11-17T08:46:38.933Z,1014.40
2017-11-17T08:47:38.801Z,1014.40
2017-11-17T08:48:38.709Z,1014.40
2017-11-17T08:49:38.625Z,1014.38
2017-11-17T08:50:38.536Z,1014.36
2017-11-17T08:51:38.467Z,1014.40
2017-11-17T08:52:38.361Z,1014.35
2017-11-17T08:53:38.267Z,1014.41
2017-11-17T08:54:38.188Z,1014.40
2017-11-17T08:55:38.101Z,1014.40
2017-11-17T08:56:38.005Z,1014.40
2017-11-17T08:57:37.971Z,1014.37
2017-11-17T08:58:37.844Z,1014.36
2017-11-17T08:59:37.747Z,1014.37
2017-11-17T09:00:37.664Z,1014.38
2017-11-17T09:01:37.575Z,1014.42
2017-11-17T09:02:37.488Z,1014.38
2017-11-17T09:03:37.441Z,1014.39
2017-11-17T09:04:37.322Z,1014.42
2017-11-17T09:05:37.225Z,1014.44
2017-11-17T09:06:37.149Z,1014.42
2017-11-17T09:07:37.055Z,1014.46
2017-11-17T09:08:36.966Z,1014.48
2017-11-17T09:09:36.902Z,1014.46
2017-11-17T09:10:36.797Z,1014.46
2017-11-17T09:11:36.707Z,1014.47
2017-11-17T09:12:36.614Z,1014.49
2017-11-17T09:13:36.533Z,1014.48
2017-11-17T09:14:36.449Z,1014.49
2017-11-17T09:15:36.362Z,1014.49
2017-11-17T09:16:36.267Z,1014.54
2017-11-17T09:17:36.181Z,1014.52
2017-11-17T09:18:36.142Z,1014.51
2017-11-17T09:19:36.011Z,1014.49
2017-11-17T09:20:35.925Z,1014.52
2017-11-17T09:21:35.861Z,1014.54
2017-11-17T09:22:35.739Z,1014.56
2017-11-17T09:23:35.649Z,1014.56
2017-11-17T09:24:35.570Z,1014.59
2017-11-17T09:25:35.484Z,1014.57
2017-11-17T09:26:35.410Z,1014.58
2017-11-17T09:27:35.321Z,1014.58
2017-11-17T09:28:35.228Z,1014.56
2017-11-17T09:29:35.139Z,1014.57
2017-11-17T09:30:35.050Z,1014.60
2017-11-17T09:31:34.964Z,1014.63
2017-11-17T09:32:34.874Z,1014.59
2017-11-17T09:33:34.784Z,1014.65
2017-11-17T09:34:34.697Z,1014.57
2017-11-17T09:35:34.617Z,1014.57
2017-11-17T09:36:34.569Z,1014.58
2017-11-17T09:37:34.463Z,1014.57
2017-11-17T09:38:34.347Z,1014.61
2017-11-17T09:39:34.283Z,1014.61
2017-11-17T09:40:34.180Z,1014.60
2017-11-17T09:41:34.091Z,1014.56
2017-11-17T09:42:33.998Z,1014.59
2017-11-17T09:43:33.920Z,1014.61
2017-11-17T09:44:33.823Z,1014.61
2017-11-17T09:45:33.850Z,1014.61
2017-11-17T09:46:33.657Z,1014.65
2017-11-17T09:47:33.567Z,1014.62
2017-11-17T09:48:33.480Z,1014.63
2017-11-17T09:49:33.416Z,1014.64
2017-11-17T09:50:33.310Z,1014.61
2017-11-17T09:51:33.228Z,1014.62
2017-11-17T09:52:33.137Z,1014.73
2017-11-17T09:53:33.048Z,1014.73
2017-11-17T09:54:32.952Z,1014.71
2017-11-17T09:55:32.863Z,1014.71
2017-11-17T09:56:32.779Z,1014.73
2017-11-17T09:57:32.698Z,1014.73
2017-11-17T09:58:32.607Z,1014.73
2017-11-17T09:59:32.514Z,1014.68
2017-11-17T10:00:32.442Z,1014.72
2017-11-17T10:01:32.345Z,1014.72
2017-11-17T10:02:32.262Z,1014.74
2017-11-17T10:03:32.177Z,1014.71
2017-11-17T10:04:32.087Z,1014.71
2017-11-17T10:05:32.026Z,1014.69
2017-11-17T10:06:31.923Z,1014.70
2017-11-17T10:07:31.820Z,1014.69
2017-11-17T10:08:31.735Z,1014.68
2017-11-17T10:09:31.643Z,1014.64
2017-11-17T10:10:31.565Z,1014.65
2017-11-17T10:11:31.465Z,1014.63
2017-11-17T10:12:31.379Z,1014.65
2017-11-17T10:13:31.295Z,1014.66
2017-11-17T10:14:31.218Z,1014.66
2017-11-17T10:15:31.120Z,1014.65
2017-11-17T10:16:31.042Z,1014.68
2017-11-17T10:17:30.983Z,1014.65
2017-11-17T10:18:30.883Z,1014.65
2017-11-17T10:19:30.792Z,1014.66
2017-11-17T10:20:30.703Z,1014.61
2017-11-17T10:21:30.597Z,1014.63
2017-11-17T10:22:30.508Z,1014.63
2017-11-17T10:23:30.423Z,1014.58
2017-11-17T10:24:30.337Z,1014.61
2017-11-17T10:25:30.241Z,1014.62
2017-11-17T10:26:30.157Z,1014.62
2017-11-17T10:27:30.073Z,1014.61
2017-11-17T10:28:29.996Z,1014.63
2017-11-17T10:29:29.912Z,1014.63
2017-11-17T10:30:29.814Z,1014.63
2017-11-17T10:31:29.723Z,1014.60
2017-11-17T10:32:29.641Z,1014.63
2017-11-17T10:33:29.549Z,1014.58
2017-11-17T10:34:29.483Z,1014.59
2017-11-17T10:35:29.369Z,1014.55
2017-11-17T10:36:29.298Z,1014.64
2017-11-17T10:37:29.214Z,1014.60
2017-11-17T10:38:29.117Z,1014.60
2017-11-17T10:39:29.025Z,1014.59
2017-11-17T10:40:28.932Z,1014.56
2017-11-17T10:41:28.861Z,1014.56
2017-11-17T10:42:28.774Z,1014.56
2017-11-17T10:43:28.676Z,1014.56
2017-11-17T10:44:28.587Z,1014.51
2017-11-17T10:45:28.501Z,1014.52
2017-11-17T10:46:28.412Z,1014.54
2017-11-17T10:47:28.320Z,1014.49
2017-11-17T10:48:28.236Z,1014.47
2017-11-17T10:49:28.158Z,1014.47
2017-11-17T10:50:28.067Z,1014.45
2017-11-17T10:51:27.976Z,1014.45
2017-11-17T10:52:27.886Z,1014.47
2017-11-17T10:53:27.812Z,1014.48
2017-11-17T10:54:27.844Z,1014.48
2017-11-17T10:55:27.639Z,1014.49
2017-11-17T10:56:27.538Z,1014.50
2017-11-17T10:57:27.460Z,1014.48
2017-11-17T10:58:27.362Z,1014.46
2017-11-17T10:59:27.286Z,1014.46
2017-11-17T11:00:27.194Z,1014.50
2017-11-17T11:01:27.108Z,1014.48
2017-11-17T11:02:27.017Z,1014.43
2017-11-17T11:03:26.929Z,1014.47
2017-11-17T11:04:26.836Z,1014.42
2017-11-17T11:05:26.763Z,1014.34
2017-11-17T11:06:26.682Z,1014.36
2017-11-17T11:07:26.599Z,1014.39
2017-11-17T11:08:26.561Z,1014.35
2017-11-17T11:09:26.412Z,1014.36
2017-11-17T11:10:26.320Z,1014.37
2017-11-17T11:11:26.243Z,1014.38
2017-11-17T11:12:26.154Z,1014.36
2017-11-17T11:13:26.060Z,1014.38
2017-11-17T11:14:25.973Z,1014.36
2017-11-17T11:15:25.886Z,1014.36
2017-11-17T11:16:25.810Z,1014.34
2017-11-17T11:17:25.721Z,1014.33
2017-11-17T11:18:25.639Z,1014.34
2017-11-17T11:19:25.543Z,1014.36
2017-11-17T11:20:25.466Z,1014.35
2017-11-17T11:21:25.378Z,1014.37
2017-11-17T11:22:25.284Z,1014.37
2017-11-17T11:23:25.200Z,1014.34
2017-11-17T11:24:25.112Z,1014.35
2017-11-17T11:25:25.028Z,1014.39
2017-11-17T11:26:24.938Z,1014.35
2017-11-17T11:27:24.851Z,1014.32
2017-11-17T11:28:24.767Z,1014.33
2017-11-17T11:29:24.677Z,1014.35
2017-11-17T11:30:24.607Z,1014.29
2017-11-17T11:31:24.499Z,1014.29
2017-11-17T11:32:24.416Z,1014.26
2017-11-17T11:33:24.336Z,1014.26
2017-11-17T11:34:24.246Z,1014.26
2017-11-17T11:35:24.164Z,1014.27
2017-11-17T11:36:24.070Z,1014.27
2017-11-17T11:37:23.983Z,1014.28
2017-11-17T11:38:23.938Z,1014.27
2017-11-17T11:39:23.820Z,1014.25
2017-11-17T11:40:23.725Z,1014.22
2017-11-17T11:41:23.648Z,1014.23
2017-11-17T11:42:23.554Z,1014.19
2017-11-17T11:43:23.464Z,1014.22
2017-11-17T11:44:23.380Z,1014.23
2017-11-17T11:45:23.320Z,1014.18
2017-11-17T11:46:23.220Z,1014.17
2017-11-17T11:47:23.115Z,1014.17
2017-11-17T11:48:23.034Z,1014.14
2017-11-17T11:49:22.951Z,1014.18
2017-11-17T11:50:22.862Z,1014.14
2017-11-17T11:51:22.785Z,1014.19
2017-11-17T11:52:22.687Z,1014.18
2017-11-17T11:53:22.607Z,1014.18
2017-11-17T11:54:22.511Z,1014.18
2017-11-17T11:55:22.438Z,1014.20
2017-11-17T11:56:22.341Z,1014.19
2017-11-17T11:57:22.258Z,1014.20
2017-11-17T11:58:22.167Z,1014.15
2017-11-17T11:59:22.082Z,1014.15
2017-11-17T12:00:22.001Z,1014.14
2017-11-17T12:01:21.909Z,1014.12
2017-11-17T12:02:21.821Z,1014.19
2017-11-17T12:03:21.763Z,1014.18
2017-11-17T12:04:21.773Z,1014.23